Time;durP1;ratioP1;P1;durP2;ratioP2;P2;SDS_P1;SDS_P2;PMS_P1;PMS_P2;Temp;Humidity;BMP_temperature;BMP_pressure;BME280_temperature;BME280_humidity;BME280_pressure;Samples;Min_cycle;Max_cycle;Signal;HPM_P1;HPM_P2
2022/03/20 00:01:11;;;;;;;11.27;4.35;;;6.80;56.80;;;;;;5036104;28;20029;-88
2022/03/20 00:03:37;;;;;;;9.02;3.40;;;6.80;56.90;;;;;;5045719;28;20109;-90
2022/03/20 00:06:03;;;;;;;9.85;3.63;;;6.80;57.10;;;;;;5032167;28;20088;-88
2022/03/20 00:08:32;;;;;;;10.43;3.50;;;6.80;57.20;;;;;;5031457;28;20034;-88
2022/03/20 00:11:01;;;;;;;10.65;3.95;;;6.80;57.20;;;;;;5016902;28;20038;-89
2022/03/20 00:13:27;;;;;;;8.70;3.50;;;6.80;57.30;;;;;;5005738;28;20093;-89
2022/03/20 00:15:54;;;;;;;11.70;3.92;;;6.70;57.50;;;;;;5014176;28;20053;-90
2022/03/20 00:18:23;;;;;;;12.38;4.95;;;6.70;57.60;;;;;;5030134;28;20030;-89
2022/03/20 00:21:00;;;;;;;11.07;5.13;;;6.60;57.80;;;;;;5023661;28;20048;-89
2022/03/20 00:23:26;;;;;;;10.52;5.68;;;6.60;57.90;;;;;;5019424;28;20068;-89
2022/03/20 00:25:53;;;;;;;13.70;5.55;;;6.60;58.20;;;;;;5020161;28;20029;-89
2022/03/20 00:28:23;;;;;;;11.48;4.80;;;6.50;58.60;;;;;;5006229;28;20037;-88
2022/03/20 00:30:49;;;;;;;10.32;4.38;;;6.50;58.90;;;;;;5006667;28;20072;-89
2022/03/20 00:33:15;;;;;;;9.77;4.18;;;6.40;59.10;;;;;;5031858;28;20079;-89
2022/03/20 00:35:41;;;;;;;9.35;4.65;;;6.30;59.50;;;;;;5019617;28;20120;-89
2022/03/20 00:38:08;;;;;;;9.73;3.63;;;6.20;59.90;;;;;;5054025;28;20029;-89
2022/03/20 00:40:35;;;;;;;14.15;4.70;;;6.20;60.10;;;;;;5032918;28;20021;-88
2022/03/20 00:43:01;;;;;;;10.40;3.90;;;6.10;60.40;;;;;;5032127;28;20365;-89
2022/03/20 00:45:30;;;;;;;9.75;3.90;;;6.10;60.80;;;;;;5049253;28;20033;-88
2022/03/20 00:47:56;;;;;;;10.55;4.18;;;6.00;61.00;;;;;;5030056;28;20464;-87
2022/03/20 00:50:22;;;;;;;14.27;4.10;;;6.00;61.10;;;;;;5008368;28;20132;-88
2022/03/20 00:52:48;;;;;;;8.80;4.10;;;6.00;61.20;;;;;;5009843;28;20156;-89
2022/03/20 00:55:14;;;;;;;11.15;3.85;;;6.10;61.30;;;;;;5010625;28;20125;-88
2022/03/20 00:57:40;;;;;;;9.05;3.83;;;6.00;61.30;;;;;;5016816;28;20026;-89
2022/03/20 01:00:07;;;;;;;10.55;3.83;;;6.00;61.40;;;;;;5027683;28;20040;-88
2022/03/20 01:02:43;;;;;;;10.23;3.70;;;5.90;61.50;;;;;;5014922;28;20065;-88
2022/03/20 01:05:10;;;;;;;7.97;3.58;;;5.90;61.80;;;;;;5028453;28;20033;-88
2022/03/20 01:07:37;;;;;;;11.50;4.15;;;5.90;62.00;;;;;;5029911;28;20417;-88
2022/03/20 01:10:07;;;;;;;13.73;4.40;;;5.90;62.10;;;;;;5027269;28;20143;-87
2022/03/20 01:12:34;;;;;;;11.82;3.95;;;5.80;62.60;;;;;;5013027;28;20037;-87
2022/03/20 01:15:01;;;;;;;11.70;4.15;;;5.80;62.80;;;;;;5029170;28;20032;-89
2022/03/20 01:17:27;;;;;;;11.88;4.38;;;5.80;62.70;;;;;;5012143;28;20049;-88
2022/03/20 01:19:52;;;;;;;16.08;4.13;;;5.80;62.70;;;;;;5005761;28;20495;-88
2022/03/20 01:22:18;;;;;;;9.43;4.13;;;5.90;62.60;;;;;;5022443;28;20041;-88
2022/03/20 01:24:45;;;;;;;8.85;4.15;;;5.90;62.40;;;;;;5006090;28;20030;-88
2022/03/20 01:27:12;;;;;;;10.00;4.10;;;5.90;62.50;;;;;;5012760;28;20030;-88
2022/03/20 01:29:39;;;;;;;8.27;4.57;;;5.90;62.40;;;;;;5006440;28;20044;-87
2022/03/20 01:32:05;;;;;;;12.50;4.95;;;5.90;62.60;;;;;;5004636;28;20041;-88
2022/03/20 01:34:31;;;;;;;9.30;4.63;;;5.90;62.40;;;;;;5007290;28;20640;-88
2022/03/20 01:36:58;;;;;;;12.43;4.63;;;5.90;62.70;;;;;;5025190;28;20131;-88
2022/03/20 01:39:24;;;;;;;10.75;4.63;;;5.80;62.80;;;;;;5009073;28;20046;-88
2022/03/20 01:41:50;;;;;;;10.50;5.00;;;5.80;62.90;;;;;;5007028;28;20037;-88
2022/03/20 01:44:16;;;;;;;10.70;4.88;;;5.80;63.00;;;;;;5006761;28;20059;-89
2022/03/20 01:46:42;;;;;;;11.00;5.40;;;5.80;63.00;;;;;;5028487;28;20034;-88
2022/03/20 01:49:08;;;;;;;11.30;5.20;;;5.80;63.10;;;;;;5010376;28;20080;-89
2022/03/20 01:54:20;;;;;;;12.80;5.65;;;5.70;63.20;;;;;;5030928;28;20490;-89
2022/03/20 01:56:51;;;;;;;12.00;5.50;;;5.70;63.40;;;;;;5018097;28;20014;-88
2022/03/20 01:59:17;;;;;;;11.13;5.70;;;5.70;63.60;;;;;;5031718;28;20041;-90
2022/03/20 02:01:44;;;;;;;12.73;6.35;;;5.60;63.90;;;;;;5013786;28;20049;-88
2022/03/20 02:04:16;;;;;;;13.18;6.70;;;5.50;64.20;;;;;;5010782;28;20022;-88
2022/03/20 02:06:45;;;;;;;14.35;7.22;;;5.50;64.50;;;;;;5007998;28;20492;-88
2022/03/20 02:09:11;;;;;;;15.45;7.07;;;5.40;64.60;;;;;;5014290;28;20572;-88
2022/03/20 02:11:37;;;;;;;13.93;7.10;;;5.50;64.60;;;;;;5010865;28;20392;-88
2022/03/20 02:14:04;;;;;;;12.68;7.20;;;5.50;64.50;;;;;;5024649;28;20048;-88
2022/03/20 02:16:30;;;;;;;13.35;7.85;;;5.40;64.70;;;;;;5001637;28;20919;-88
2022/03/20 02:18:57;;;;;;;17.92;9.15;;;5.40;64.80;;;;;;5026594;28;20040;-89
2022/03/20 02:21:55;;;;;;;16.23;8.90;;;5.40;64.80;;;;;;5018380;28;20049;-88
2022/03/20 02:24:40;;;;;;;15.35;7.80;;;5.30;65.00;;;;;;5008608;28;20965;-87
2022/03/20 02:27:06;;;;;;;17.95;8.52;;;5.30;65.00;;;;;;5013881;28;20644;-87
2022/03/20 02:29:33;;;;;;;14.63;8.60;;;5.20;65.30;;;;;;5024793;28;20041;-87
2022/03/20 02:32:00;;;;;;;15.13;8.55;;;5.20;65.50;;;;;;5008990;28;20065;-87
2022/03/20 02:34:28;;;;;;;15.80;8.48;;;5.10;65.60;;;;;;5026938;28;20037;-88
2022/03/20 02:36:55;;;;;;;13.07;8.32;;;5.10;65.80;;;;;;5025988;28;20045;-87
2022/03/20 02:39:22;;;;;;;15.82;8.98;;;5.10;65.80;;;;;;5026804;28;20044;-88
2022/03/20 02:41:49;;;;;;;15.55;8.52;;;5.10;65.90;;;;;;5008405;28;20124;-87
2022/03/20 02:44:16;;;;;;;15.25;8.93;;;5.10;65.70;;;;;;5008019;28;20322;-88
2022/03/20 02:46:42;;;;;;;13.23;8.25;;;5.10;65.90;;;;;;5024680;28;20033;-89
2022/03/20 02:49:10;;;;;;;16.88;8.88;;;5.10;65.90;;;;;;5007754;28;20501;-87
2022/03/20 02:51:36;;;;;;;16.45;8.93;;;5.10;65.80;;;;;;5014407;28;20033;-87
2022/03/20 02:54:03;;;;;;;20.05;9.35;;;5.10;65.80;;;;;;5026527;28;20645;-88
2022/03/20 02:56:29;;;;;;;18.80;8.90;;;5.10;65.80;;;;;;4999361;28;20120;-89
2022/03/20 02:58:55;;;;;;;16.83;8.93;;;5.10;65.80;;;;;;5009266;28;20668;-88
2022/03/20 03:01:21;;;;;;;14.85;8.25;;;5.10;65.90;;;;;;5023632;28;20049;-88
2022/03/20 03:03:48;;;;;;;16.00;8.20;;;5.00;65.90;;;;;;5029636;28;20045;-89
2022/03/20 03:06:14;;;;;;;14.07;8.13;;;5.00;66.00;;;;;;5033970;28;20044;-90
2022/03/20 03:11:38;;;;;;;16.30;8.55;;;4.90;66.30;;;;;;5007695;28;20033;-88
2022/03/20 03:15:18;;;;;;;13.52;8.68;;;4.80;66.60;;;;;;5025333;28;20025;-89
2022/03/20 03:16:50;;;;;;;13.18;8.07;;;4.80;66.70;;;;;;5025768;28;20571;-89
2022/03/20 03:19:16;;;;;;;15.30;8.20;;;4.80;66.60;;;;;;5009507;28;20112;-89
2022/03/20 03:21:42;;;;;;;16.77;9.30;;;4.80;66.60;;;;;;5019395;28;20061;-89
2022/03/20 03:24:08;;;;;;;14.23;7.93;;;4.90;66.50;;;;;;5037845;28;20033;-86
2022/03/20 03:26:35;;;;;;;17.42;8.63;;;4.80;66.50;;;;;;5028336;28;20136;-89
2022/03/20 03:29:01;;;;;;;15.30;8.63;;;4.80;66.30;;;;;;5009904;28;20032;-86
2022/03/20 03:31:27;;;;;;;13.70;8.52;;;4.80;66.30;;;;;;5007936;28;20037;-89
2022/03/20 03:36:37;;;;;;;19.50;9.07;;;4.80;66.30;;;;;;5045920;28;20075;-90
2022/03/20 03:39:03;;;;;;;13.80;9.05;;;4.70;66.60;;;;;;5026466;28;20017;-89
2022/03/20 03:41:29;;;;;;;16.02;9.35;;;4.70;66.80;;;;;;5022353;28;20144;-88
2022/03/20 03:43:55;;;;;;;17.55;9.52;;;4.60;66.90;;;;;;5020492;28;20103;-89
2022/03/20 03:46:21;;;;;;;15.73;9.50;;;4.60;67.10;;;;;;5007738;28;20033;-88
2022/03/20 03:48:47;;;;;;;18.40;9.50;;;4.60;67.20;;;;;;5009038;28;20034;-88
2022/03/20 03:51:13;;;;;;;20.35;9.38;;;4.60;67.30;;;;;;5009426;28;20033;-88
2022/03/20 03:53:39;;;;;;;17.98;9.65;;;4.60;67.10;;;;;;5007764;28;20033;-87
2022/03/20 03:56:06;;;;;;;19.98;9.38;;;4.60;67.00;;;;;;5025988;28;20479;-89
2022/03/20 03:58:32;;;;;;;15.75;10.20;;;4.60;67.00;;;;;;5008255;28;20108;-89
2022/03/20 04:00:58;;;;;;;16.63;9.55;;;4.70;66.90;;;;;;5018055;28;20457;-87
2022/03/20 04:03:23;;;;;;;17.13;10.45;;;4.70;66.70;;;;;;5008649;28;20052;-88
2022/03/20 04:05:49;;;;;;;17.95;10.25;;;4.70;66.80;;;;;;5032219;28;20091;-87
2022/03/20 04:08:16;;;;;;;17.73;10.07;;;4.70;66.80;;;;;;5009429;28;20029;-88
2022/03/20 04:10:42;;;;;;;17.35;11.13;;;4.70;66.90;;;;;;5026344;28;20128;-88
2022/03/20 04:13:09;;;;;;;15.98;10.90;;;4.70;67.30;;;;;;4989571;28;20041;-88
2022/03/20 04:15:35;;;;;;;16.20;11.23;;;4.60;67.70;;;;;;5009038;28;20029;-90
2022/03/20 04:18:01;;;;;;;18.42;10.98;;;4.60;67.80;;;;;;5009246;28;20391;-88
2022/03/20 04:20:27;;;;;;;20.95;11.55;;;4.50;68.20;;;;;;5016653;28;20120;-89
2022/03/20 04:25:39;;;;;;;17.65;11.15;;;4.30;69.20;;;;;;5019601;28;20041;-88
2022/03/20 04:28:05;;;;;;;18.73;9.90;;;4.20;69.80;;;;;;5007338;28;20137;-88
2022/03/20 04:30:34;;;;;;;17.77;11.00;;;4.10;70.70;;;;;;5009315;28;20034;-89
2022/03/20 04:33:00;;;;;;;18.65;10.45;;;4.10;71.00;;;;;;5025063;28;20033;-88
2022/03/20 04:35:25;;;;;;;19.08;10.43;;;4.00;71.30;;;;;;5025540;28;20033;-90
2022/03/20 04:37:53;;;;;;;17.98;10.90;;;4.00;71.50;;;;;;5007965;28;20029;-88
2022/03/20 04:40:19;;;;;;;19.83;10.77;;;3.90;71.80;;;;;;5025830;28;20034;-88
2022/03/20 04:42:45;;;;;;;18.38;10.82;;;3.90;72.00;;;;;;5008071;28;20045;-87
2022/03/20 04:45:12;;;;;;;15.13;9.80;;;3.90;72.30;;;;;;5006912;28;20069;-89
2022/03/20 04:58:55;;;;;;;18.83;11.20;;;3.70;73.10;;;;;;4965969;28;20498;-88
2022/03/20 05:01:21;;;;;;;19.05;10.70;;;3.60;73.30;;;;;;4968231;28;20047;-88
2022/03/20 05:03:47;;;;;;;20.70;11.95;;;3.60;73.40;;;;;;4996579;28;20052;-88
2022/03/20 05:06:12;;;;;;;19.30;11.30;;;3.60;73.30;;;;;;5011889;28;20034;-88
2022/03/20 05:08:39;;;;;;;25.02;12.48;;;3.70;73.40;;;;;;5022757;28;20110;-88
2022/03/20 05:13:50;;;;;;;22.53;13.70;;;3.70;73.30;;;;;;5029189;28;20045;-88
2022/03/20 05:16:15;;;;;;;22.05;12.82;;;3.70;73.10;;;;;;5045303;28;20272;-88
2022/03/20 05:18:41;;;;;;;21.63;13.98;;;3.70;73.20;;;;;;5029232;28;20451;-87
2022/03/20 05:21:10;;;;;;;20.08;13.43;;;3.70;73.10;;;;;;5013203;28;20045;-88
2022/03/20 05:23:36;;;;;;;22.52;13.75;;;3.80;72.90;;;;;;5015907;28;19917;-88
2022/03/20 05:26:02;;;;;;;22.85;13.85;;;3.70;72.90;;;;;;5007576;28;20342;-87
2022/03/20 05:28:28;;;;;;;27.73;15.00;;;3.70;73.00;;;;;;5011693;28;20764;-88
2022/03/20 05:30:54;;;;;;;24.33;14.43;;;3.70;73.00;;;;;;5030626;28;20036;-87
2022/03/20 05:33:20;;;;;;;21.50;14.68;;;3.70;72.90;;;;;;5033040;28;20033;-89
2022/03/20 05:35:45;;;;;;;22.83;15.50;;;3.70;72.90;;;;;;5010916;28;20068;-89
2022/03/20 05:38:12;;;;;;;24.92;15.98;;;3.70;72.80;;;;;;5002920;28;20099;-87
2022/03/20 05:40:39;;;;;;;25.95;15.90;;;3.70;72.70;;;;;;5032455;28;20061;-88
2022/03/20 05:43:08;;;;;;;23.08;16.08;;;3.80;72.50;;;;;;5027873;28;20356;-87
2022/03/20 05:45:34;;;;;;;23.63;16.17;;;3.70;72.40;;;;;;5023657;28;20040;-89
2022/03/20 05:47:59;;;;;;;26.90;17.60;;;3.80;72.20;;;;;;5029091;28;20057;-88
2022/03/20 05:50:25;;;;;;;29.73;17.50;;;3.70;72.20;;;;;;5046222;28;20029;-88
2022/03/20 05:52:52;;;;;;;25.98;17.80;;;3.70;72.30;;;;;;5032156;28;20032;-88
2022/03/20 05:55:18;;;;;;;25.02;16.98;;;3.70;72.30;;;;;;5013077;28;20083;-87
2022/03/20 05:58:02;;;;;;;24.73;17.20;;;3.70;72.00;;;;;;5015585;28;20121;-85
2022/03/20 06:00:28;;;;;;;31.90;18.77;;;3.70;72.10;;;;;;5021821;28;20449;-89
2022/03/20 06:02:54;;;;;;;27.48;18.73;;;3.70;72.00;;;;;;5012098;28;20076;-86
2022/03/20 06:05:21;;;;;;;28.42;18.80;;;3.70;72.00;;;;;;5011915;28;20029;-86
2022/03/20 06:07:49;;;;;;;26.85;17.95;;;3.70;71.90;;;;;;5033267;28;20037;-88
2022/03/20 06:10:16;;;;;;;26.60;18.90;;;3.70;71.80;;;;;;5015320;28;20038;-87
2022/03/20 06:12:43;;;;;;;28.40;19.70;;;3.70;71.70;;;;;;5030033;28;20682;-86
2022/03/20 06:15:09;;;;;;;30.58;19.08;;;3.70;71.60;;;;;;5006777;28;20040;-87
2022/03/20 06:17:46;;;;;;;29.63;19.70;;;3.70;71.60;;;;;;5029076;28;20121;-86
2022/03/20 06:20:14;;;;;;;29.77;19.63;;;3.70;71.40;;;;;;5028325;28;20641;-89
2022/03/20 06:22:42;;;;;;;29.85;19.73;;;3.80;71.20;;;;;;5020893;28;20425;-88
2022/03/20 06:25:11;;;;;;;29.67;19.77;;;3.80;71.10;;;;;;5009525;28;20040;-88
2022/03/20 06:27:44;;;;;;;27.92;19.75;;;3.80;70.90;;;;;;5011151;28;20026;-92
2022/03/20 06:30:11;;;;;;;28.83;20.70;;;3.90;70.90;;;;;;5009325;28;20034;-90
2022/03/20 06:32:37;;;;;;;27.23;19.48;;;3.80;70.70;;;;;;5028325;28;20084;-90
2022/03/20 06:35:06;;;;;;;29.63;20.60;;;3.90;70.70;;;;;;5029232;28;20034;-86
2022/03/20 06:37:43;;;;;;;31.48;19.60;;;3.90;70.50;;;;;;5024479;28;20092;-87
2022/03/20 06:40:10;;;;;;;27.90;19.45;;;3.90;70.60;;;;;;5014188;28;20237;-89
2022/03/20 06:42:36;;;;;;;31.23;22.85;;;4.00;70.70;;;;;;5028989;28;20038;-87
2022/03/20 06:45:05;;;;;;;29.23;21.73;;;3.90;70.70;;;;;;5027756;28;20033;-88
2022/03/20 06:47:32;;;;;;;30.65;22.17;;;4.00;70.60;;;;;;5028638;28;20041;-88
2022/03/20 06:49:59;;;;;;;31.45;20.77;;;4.00;70.60;;;;;;5022796;28;20044;-89
2022/03/20 06:52:28;;;;;;;33.17;22.05;;;3.90;70.60;;;;;;5029168;28;20085;-89
2022/03/20 06:54:56;;;;;;;32.08;22.20;;;4.00;70.60;;;;;;5045648;28;20017;-89
2022/03/20 06:57:23;;;;;;;32.80;22.48;;;4.00;70.60;;;;;;5038496;28;20033;-89
2022/03/20 06:59:49;;;;;;;32.50;22.15;;;4.00;70.70;;;;;;5047183;28;20069;-87
2022/03/20 07:02:18;;;;;;;31.23;23.50;;;4.00;70.40;;;;;;5033600;28;20380;-90
2022/03/20 07:04:47;;;;;;;30.88;22.77;;;4.10;70.60;;;;;;5042627;28;20133;-90
2022/03/20 07:07:16;;;;;;;33.50;23.63;;;4.20;70.10;;;;;;5006971;28;20033;-88
2022/03/20 07:09:42;;;;;;;30.35;23.33;;;4.30;70.10;;;;;;5011321;28;20064;-87
2022/03/20 07:12:09;;;;;;;30.27;22.73;;;4.30;69.50;;;;;;5011574;28;20491;-88
2022/03/20 07:14:35;;;;;;;29.40;21.35;;;4.30;69.70;;;;;;5011709;28;20029;-88
2022/03/20 07:17:03;;;;;;;29.05;21.65;;;4.50;69.60;;;;;;5013304;28;20515;-87
2022/03/20 07:19:31;;;;;;;29.00;21.55;;;4.60;69.40;;;;;;5029771;28;20038;-87
2022/03/20 07:21:57;;;;;;;31.83;21.70;;;4.70;69.60;;;;;;5013970;28;20037;-87
2022/03/20 07:24:24;;;;;;;26.63;20.27;;;4.80;69.40;;;;;;5018784;28;20038;-89
2022/03/20 07:29:34;;;;;;;30.20;22.38;;;5.00;69.50;;;;;;5017585;28;20040;-88
2022/03/20 07:32:06;;;;;;;27.88;21.35;;;5.00;69.50;;;;;;5010225;28;20041;-87
2022/03/20 07:34:34;;;;;;;29.80;22.30;;;5.00;69.50;;;;;;5029618;28;20504;-88
2022/03/20 07:37:00;;;;;;;29.35;22.77;;;5.10;69.80;;;;;;5010426;28;20117;-87
2022/03/20 07:39:26;;;;;;;30.95;21.13;;;5.10;69.70;;;;;;5014339;28;20034;-88
2022/03/20 07:41:51;;;;;;;32.35;24.73;;;5.20;69.70;;;;;;5036378;28;20053;-89
2022/03/20 07:44:17;;;;;;;30.00;22.98;;;5.10;68.90;;;;;;5026334;28;20034;-87
2022/03/20 07:46:43;;;;;;;30.60;24.00;;;5.10;69.10;;;;;;5010129;28;20045;-85
2022/03/20 07:49:09;;;;;;;31.85;23.50;;;5.20;68.90;;;;;;5016093;28;20049;-87
2022/03/20 07:51:35;;;;;;;30.85;24.35;;;5.00;68.40;;;;;;5032306;28;20038;-86
2022/03/20 07:54:01;;;;;;;32.53;24.25;;;5.00;69.10;;;;;;5020538;28;20056;-85
2022/03/20 07:56:28;;;;;;;30.25;23.85;;;5.00;69.30;;;;;;5032166;28;20026;-84
2022/03/20 07:58:55;;;;;;;32.22;23.30;;;4.80;69.90;;;;;;5026312;28;20053;-84
2022/03/20 08:01:21;;;;;;;33.80;24.52;;;4.90;70.00;;;;;;5036413;28;20043;-85
2022/03/20 08:03:48;;;;;;;32.75;24.48;;;4.80;70.30;;;;;;5017645;28;20100;-87
2022/03/20 08:06:15;;;;;;;31.65;24.60;;;5.00;69.90;;;;;;5021574;28;20033;-89
2022/03/20 08:08:42;;;;;;;32.13;24.60;;;5.00;69.20;;;;;;5027615;28;20036;-87
2022/03/20 08:11:08;;;;;;;33.78;25.48;;;5.10;69.10;;;;;;5038733;28;20041;-87
2022/03/20 08:13:34;;;;;;;33.20;25.73;;;5.30;68.10;;;;;;5034549;28;20053;-90
2022/03/20 08:16:00;;;;;;;36.53;25.50;;;5.40;67.30;;;;;;5017314;28;20460;-86
2022/03/20 08:18:27;;;;;;;40.83;27.35;;;5.40;67.10;;;;;;5014934;28;20029;-87
2022/03/20 08:20:54;;;;;;;34.10;26.20;;;5.50;66.90;;;;;;5030070;28;20120;-86
2022/03/20 08:23:20;;;;;;;37.72;28.38;;;5.60;66.60;;;;;;5019563;28;20219;-88
2022/03/20 08:25:45;;;;;;;38.20;27.30;;;5.60;67.50;;;;;;5016627;28;20039;-85
2022/03/20 08:28:11;;;;;;;38.20;28.95;;;5.60;68.70;;;;;;5014803;28;20121;-87
2022/03/20 08:30:40;;;;;;;36.28;27.58;;;5.50;69.40;;;;;;5040109;28;20033;-87
2022/03/20 08:33:06;;;;;;;39.30;28.58;;;5.60;69.90;;;;;;5041335;28;20037;-89
2022/03/20 08:35:32;;;;;;;37.72;29.23;;;5.60;70.30;;;;;;5045178;28;20033;-90
2022/03/20 08:37:57;;;;;;;35.25;29.17;;;5.50;71.20;;;;;;5044560;28;20265;-87
2022/03/20 08:40:25;;;;;;;36.95;29.77;;;5.50;72.10;;;;;;5038603;28;20128;-84
2022/03/20 08:42:55;;;;;;;36.55;29.55;;;5.40;72.90;;;;;;5013256;28;20052;-87
2022/03/20 08:45:24;;;;;;;40.10;29.55;;;5.40;73.50;;;;;;5011025;28;20048;-85
2022/03/20 08:47:50;;;;;;;37.55;29.13;;;5.40;73.50;;;;;;5031370;28;20042;-84
2022/03/20 08:50:18;;;;;;;39.20;30.35;;;5.40;74.40;;;;;;5032572;28;20048;-89
2022/03/20 08:52:46;;;;;;;40.20;31.92;;;5.40;74.50;;;;;;5007871;28;20148;-86
2022/03/20 08:55:13;;;;;;;42.78;30.35;;;5.50;75.00;;;;;;5010678;28;20025;-86
2022/03/20 08:57:40;;;;;;;41.90;30.65;;;5.50;74.90;;;;;;5033451;28;20049;-87
2022/03/20 09:00:12;;;;;;;40.05;30.63;;;5.50;75.40;;;;;;5026972;28;20033;-83
2022/03/20 09:02:38;;;;;;;42.03;30.58;;;5.60;75.90;;;;;;5030887;28;20042;-88
2022/03/20 09:05:10;;;;;;;44.35;31.90;;;5.80;75.70;;;;;;5009970;28;20025;-82
2022/03/20 09:07:36;;;;;;;40.08;30.88;;;5.90;74.70;;;;;;5010267;28;20038;-87
2022/03/20 09:10:03;;;;;;;40.38;31.05;;;6.10;75.10;;;;;;5000797;28;20119;-86
2022/03/20 09:12:29;;;;;;;39.60;30.95;;;6.10;74.50;;;;;;5023012;28;20079;-87
2022/03/20 09:14:55;;;;;;;40.45;31.42;;;6.00;74.90;;;;;;5034720;28;20025;-87
2022/03/20 09:20:05;;;;;;;40.45;31.33;;;6.20;75.40;;;;;;5030104;28;20381;-85
2022/03/20 09:22:31;;;;;;;39.35;31.88;;;6.40;74.70;;;;;;5008661;28;20612;-85
2022/03/20 09:24:57;;;;;;;39.63;30.90;;;6.60;74.30;;;;;;5010024;28;20046;-85
2022/03/20 09:27:23;;;;;;;42.05;31.83;;;6.60;73.90;;;;;;5037347;28;20030;-87
2022/03/20 09:29:50;;;;;;;37.13;29.13;;;6.70;73.70;;;;;;5028572;28;20089;-85
2022/03/20 09:32:17;;;;;;;38.28;30.33;;;6.70;72.50;;;;;;5015913;28;20045;-86
2022/03/20 09:34:43;;;;;;;41.30;32.05;;;6.60;72.90;;;;;;5030299;28;20025;-84
2022/03/20 09:37:08;;;;;;;37.05;30.15;;;6.70;72.80;;;;;;5010314;28;20057;-88
2022/03/20 09:39:34;;;;;;;39.63;31.48;;;6.80;72.50;;;;;;5002107;28;20055;-85
2022/03/20 09:42:02;;;;;;;37.25;30.90;;;6.80;71.80;;;;;;5019400;28;20298;-86
2022/03/20 09:44:29;;;;;;;42.75;33.22;;;6.60;73.10;;;;;;5014960;28;20148;-88
2022/03/20 09:46:55;;;;;;;41.45;32.30;;;6.50;72.70;;;;;;5013754;28;20046;-91
2022/03/20 09:49:25;;;;;;;38.42;31.27;;;6.40;73.70;;;;;;5011974;28;20108;-86
2022/03/20 09:51:52;;;;;;;41.13;32.40;;;6.40;74.40;;;;;;5009409;28;20037;-86
2022/03/20 09:54:18;;;;;;;40.80;32.75;;;6.20;74.40;;;;;;5028024;28;20149;-86
2022/03/20 09:56:44;;;;;;;40.47;32.95;;;6.10;74.10;;;;;;5020911;28;20061;-84
2022/03/20 09:59:10;;;;;;;39.72;32.42;;;6.10;74.00;;;;;;5011537;28;20117;-87
2022/03/20 10:01:36;;;;;;;42.30;32.72;;;6.00;74.60;;;;;;5027564;28;20037;-84
2022/03/20 10:04:13;;;;;;;41.95;33.40;;;6.00;74.90;;;;;;5029015;28;20029;-86
2022/03/20 10:06:40;;;;;;;42.47;32.35;;;5.90;74.90;;;;;;5028354;28;20116;-89
2022/03/20 10:09:09;;;;;;;41.47;32.28;;;5.90;74.90;;;;;;5034345;28;20083;-90
2022/03/20 10:11:37;;;;;;;48.67;38.53;;;5.90;75.20;;;;;;5030588;28;20057;-83
2022/03/20 10:14:08;;;;;;;51.47;39.55;;;5.90;75.10;;;;;;5008612;28;20049;-87
2022/03/20 10:16:36;;;;;;;45.17;35.08;;;5.80;75.20;;;;;;5010330;28;20064;-87
2022/03/20 10:19:05;;;;;;;43.35;32.67;;;5.80;74.90;;;;;;5004417;28;20184;-87
2022/03/20 10:21:45;;;;;;;40.40;31.25;;;5.70;74.80;;;;;;5009208;28;20094;-84
2022/03/20 10:24:32;;;;;;;45.20;34.63;;;5.70;74.70;;;;;;5023376;28;20049;-89
2022/03/20 10:27:00;;;;;;;42.80;33.80;;;5.60;75.20;;;;;;5019912;28;20040;-85
2022/03/20 10:29:31;;;;;;;45.42;35.13;;;5.60;75.30;;;;;;5026339;28;20519;-84
2022/03/20 10:32:08;;;;;;;47.60;39.80;;;5.60;75.70;;;;;;4994968;28;20069;-85
2022/03/20 10:34:58;;;;;;;40.67;33.55;;;5.60;76.10;;;;;;5006369;28;20436;-84
2022/03/20 10:37:43;;;;;;;45.38;34.85;;;5.60;75.90;;;;;;5001997;28;20045;-84
2022/03/20 10:40:14;;;;;;;39.85;33.15;;;5.80;75.20;;;;;;5016497;28;20392;-86
2022/03/20 10:42:41;;;;;;;43.15;32.85;;;5.80;75.10;;;;;;5028889;28;20056;-85
2022/03/20 10:45:08;;;;;;;42.72;33.78;;;5.90;74.50;;;;;;5017862;28;20489;-85
2022/03/20 10:47:35;;;;;;;41.45;32.88;;;6.10;74.30;;;;;;5012073;28;20057;-87
2022/03/20 10:50:05;;;;;;;44.33;34.80;;;6.10;74.30;;;;;;4998968;28;20256;-83
2022/03/20 10:52:30;;;;;;;43.47;33.90;;;6.20;73.80;;;;;;5009317;28;20045;-84
2022/03/20 10:54:56;;;;;;;42.88;34.15;;;6.30;73.70;;;;;;5021570;28;20048;-87
2022/03/20 10:57:34;;;;;;;43.67;33.88;;;6.40;73.10;;;;;;5002556;28;20033;-89
2022/03/20 11:00:05;;;;;;;48.25;36.13;;;6.50;72.70;;;;;;5008403;28;20595;-87
2022/03/20 11:02:31;;;;;;;43.03;33.47;;;6.60;72.70;;;;;;5002928;28;20042;-84
2022/03/20 11:04:57;;;;;;;45.25;34.33;;;6.60;71.80;;;;;;5011661;28;20041;-85
2022/03/20 11:07:23;;;;;;;41.88;35.38;;;6.70;72.20;;;;;;5029303;28;20040;-86
2022/03/20 11:09:54;;;;;;;45.95;35.45;;;6.90;71.70;;;;;;5032121;28;20562;-84
2022/03/20 11:12:27;;;;;;;43.50;35.50;;;7.00;69.90;;;;;;5009973;28;20410;-85
2022/03/20 11:14:54;;;;;;;41.20;33.40;;;7.10;70.90;;;;;;5011952;28;20029;-85
2022/03/20 11:17:23;;;;;;;43.80;35.17;;;7.10;69.90;;;;;;5011820;28;20056;-85
2022/03/20 11:19:53;;;;;;;41.00;33.13;;;7.30;70.10;;;;;;5029012;28;20049;-86
2022/03/20 11:22:20;;;;;;;43.83;34.17;;;7.40;69.60;;;;;;5010530;28;20033;-86
2022/03/20 11:24:52;;;;;;;40.97;34.00;;;7.70;68.80;;;;;;5019209;28;20025;-84
2022/03/20 11:27:30;;;;;;;41.42;33.58;;;7.60;67.60;;;;;;5009281;28;20551;-85
2022/03/20 11:30:01;;;;;;;43.85;32.80;;;7.50;68.50;;;;;;5027002;28;20048;-87
2022/03/20 11:32:28;;;;;;;42.97;34.65;;;7.80;68.50;;;;;;5025043;28;20132;-88
2022/03/20 11:34:55;;;;;;;42.28;33.97;;;8.00;68.40;;;;;;4999990;28;20030;-85
2022/03/20 11:37:20;;;;;;;42.60;33.05;;;8.30;66.60;;;;;;5009685;28;20073;-85
2022/03/20 11:40:08;;;;;;;40.03;33.17;;;8.20;65.50;;;;;;5030120;28;20041;-85
2022/03/20 11:42:35;;;;;;;43.05;34.55;;;8.10;65.30;;;;;;5003559;28;20053;-86
2022/03/20 11:45:00;;;;;;;44.78;35.20;;;8.00;67.40;;;;;;5000497;28;20041;-85
2022/03/20 11:47:31;;;;;;;42.67;34.13;;;8.00;66.90;;;;;;5010093;28;20060;-85
2022/03/20 11:50:16;;;;;;;44.72;36.47;;;8.00;66.10;;;;;;5026519;28;20680;-87
2022/03/20 11:52:55;;;;;;;42.22;34.38;;;7.60;67.10;;;;;;5012539;28;20408;-84
2022/03/20 11:55:29;;;;;;;44.70;37.17;;;7.20;68.20;;;;;;5026436;28;20042;-86
2022/03/20 11:57:59;;;;;;;45.65;37.22;;;7.10;69.80;;;;;;5014937;28;20046;-84
2022/03/20 12:00:30;;;;;;;48.55;40.28;;;7.10;69.10;;;;;;5034360;28;20033;-89
2022/03/20 12:03:14;;;;;;;46.00;37.92;;;7.20;70.10;;;;;;5020358;28;20045;-87
2022/03/20 12:05:58;;;;;;;45.53;36.70;;;7.20;69.80;;;;;;5008577;28;20088;-85
2022/03/20 12:08:55;;;;;;;46.60;37.63;;;7.30;69.30;;;;;;5007055;28;20053;-83
2022/03/20 12:11:34;;;;;;;45.45;37.88;;;7.30;69.10;;;;;;5011596;28;20495;-85
2022/03/20 12:14:26;;;;;;;48.60;38.70;;;7.10;68.90;;;;;;5009591;28;20511;-86
2022/03/20 12:16:54;;;;;;;50.92;39.80;;;7.10;69.50;;;;;;5010111;28;20050;-87
2022/03/20 12:19:42;;;;;;;46.65;38.28;;;7.10;69.40;;;;;;5011849;28;20044;-83
2022/03/20 12:22:19;;;;;;;46.15;38.33;;;7.10;69.30;;;;;;5013118;28;20440;-85
2022/03/20 12:24:57;;;;;;;48.00;39.33;;;7.10;69.10;;;;;;5018557;28;20048;-87
2022/03/20 12:27:23;;;;;;;46.75;38.58;;;7.20;69.50;;;;;;5008097;28;20080;-87
2022/03/20 12:29:53;;;;;;;49.00;40.08;;;7.20;68.90;;;;;;5016884;28;20034;-86
2022/03/20 12:32:23;;;;;;;48.53;39.72;;;7.20;69.90;;;;;;5031237;28;20049;-87
2022/03/20 12:35:02;;;;;;;45.22;37.60;;;7.30;69.30;;;;;;5028406;28;20120;-86
2022/03/20 12:37:49;;;;;;;48.58;39.83;;;7.40;68.70;;;;;;5012367;28;20041;-88
2022/03/20 12:40:32;;;;;;;49.28;39.60;;;7.40;68.20;;;;;;5031529;28;20046;-86
2022/03/20 12:43:05;;;;;;;50.08;40.25;;;7.60;69.10;;;;;;5009546;28;20076;-85
2022/03/20 12:45:32;;;;;;;48.60;38.08;;;7.70;67.70;;;;;;5012367;28;20030;-86
2022/03/20 12:48:01;;;;;;;46.70;39.28;;;7.80;67.60;;;;;;5017197;28;20043;-87
2022/03/20 12:53:09;;;;;;;47.90;40.42;;;8.50;65.80;;;;;;4992409;28;20065;-78
2022/03/20 12:55:37;;;;;;;48.10;40.78;;;9.10;63.70;;;;;;4991018;28;20049;-77
2022/03/20 12:58:04;;;;;;;52.55;40.72;;;9.50;62.50;;;;;;4997367;28;20622;-78
2022/03/20 13:00:33;;;;;;;45.70;37.83;;;9.70;61.20;;;;;;5003353;28;20033;-79
2022/03/20 13:03:07;;;;;;;45.05;38.20;;;9.70;60.90;;;;;;4996720;28;20050;-78
2022/03/20 13:05:39;;;;;;;46.95;37.58;;;10.00;59.70;;;;;;4988412;28;20097;-78
2022/03/20 13:08:09;;;;;;;48.60;38.72;;;10.00;59.10;;;;;;4990861;28;20067;-79
2022/03/20 13:10:40;;;;;;;44.88;38.25;;;10.00;59.50;;;;;;4995245;28;20547;-78
2022/03/20 13:13:07;;;;;;;44.53;36.70;;;9.80;59.30;;;;;;4988834;28;20057;-76
2022/03/20 13:15:35;;;;;;;45.67;37.63;;;9.70;58.90;;;;;;4989664;28;20057;-76
2022/03/20 13:18:03;;;;;;;45.40;37.97;;;9.70;59.00;;;;;;4994581;28;20049;-77
2022/03/20 13:20:37;;;;;;;45.85;37.97;;;9.60;59.80;;;;;;4987472;28;20037;-77